METAR AND TAF INFORMATION
METAR FOR CYQM
ADDS - METARS form results

(0614 UTC 27 April 2018)
Data provider http://aviationweather.gov/adds/metars/
 
METAR text: CYQM 270600Z 22014G22KT 15SM OVC013 10/08 A2961 RMK SC8 SLP029
Conditions at: CYQM (MONCTON AIRPORT , NB, CA) observed 0600 UTC 27 April 2018
Temperature: 10.0°C (50°F)
Dewpoint: 8.0°C (46°F) [RH = 87%]
Pressure (altimeter): 29.61 inches Hg (1002.8 mb)
[Sea-level pressure: 1002.9 mb]
Winds: from the SW (220 degrees) at 16 MPH (14 knots; 7.3 m/s)
gusting to 25 MPH (22 knots; 11.4 m/s)
Visibility: 15 miles (24 km)
Ceiling: 1300 feet AGL
Clouds: overcast cloud deck at 1300 feet AGL
Weather: no significant weather observed at this time

METAR text: CYQM 270523Z 20011KT 15SM BKN013 OVC042 10/09 A2959 RMK SC7SC1 SLP025
Conditions at: CYQM (MONCTON AIRPORT , NB, CA) observed 0523 UTC 27 April 2018
Temperature: 10.0°C (50°F)
Dewpoint: 9.0°C (48°F) [RH = 93%]
Pressure (altimeter): 29.59 inches Hg (1002.1 mb)
[Sea-level pressure: 1002.5 mb]
Winds: from the SSW (200 degrees) at 13 MPH (11 knots; 5.7 m/s)
Visibility: 15 miles (24 km)
Ceiling: 1300 feet AGL
Clouds: broken clouds at 1300 feet AGL
overcast cloud deck at 4200 feet AGL
Weather: no significant weather observed at this time

Forecast for: CYQM (MONCTON AIRPORT , NB, CA)
Text: TAF CYQM 270538Z 2706/2806 20010KT P6SM -RA BKN012 OVC040
Forecast period: 0600 to 0800 UTC 27 April 2018
Forecast type: FROM: standard forecast or significant change
Winds: from the SSW (200 degrees) at 12 MPH (10 knots; 5.2 m/s)
Visibility: 6 or more miles (10+ km)
Ceiling: 1200 feet AGL
Clouds: broken clouds at 1200 feet AGL
overcast cloud deck at 4000 feet AGL
Weather: -RA  (light rain)
Forecast for: CYQM (MONCTON AIRPORT , NB, CA)
Text: TAF CYQM 270538Z 2706/2806 20010KT P6SM -RA BKN012 OVC040
Forecast period: 0600 to 0800 UTC 27 April 2018
Forecast type: FROM: standard forecast or significant change
Winds: from the SSW (200 degrees) at 12 MPH (10 knots; 5.2 m/s)
Visibility: 6 or more miles (10+ km)
Ceiling: 1200 feet AGL
Clouds: broken clouds at 1200 feet AGL
overcast cloud deck at 4000 feet AGL
Weather: -RA  (light rain)
Forecast for: CYQM (MONCTON AIRPORT , NB, CA)
Text: TAF CYQM 270538Z 2706/2806 20010KT P6SM -RA BKN012 OVC040
Forecast period: 0600 to 0800 UTC 27 April 2018
Forecast type: TEMPORARY: The following changes expected for less than half the time period
Visibility: 4 miles (6 km)
Ceiling: 800 feet AGL
Clouds: overcast cloud deck at 800 feet AGL
Weather: -RA BR  (light rain, mist)
Forecast for: CYQM (MONCTON AIRPORT , NB, CA)
Text: TAF CYQM 270538Z 2706/2806 20010KT P6SM -RA BKN012 OVC040
Forecast period: 0600 to 0800 UTC 27 April 2018
Forecast type: TEMPORARY: The following changes expected for less than half the time period
Visibility: 4 miles (6 km)
Ceiling: 800 feet AGL
Clouds: overcast cloud deck at 800 feet AGL
Weather: -RA BR  (light rain, mist)
Forecast for: CYQM (MONCTON AIRPORT , NB, CA)
Text: TAF CYQM 270538Z 2706/2806 20010KT P6SM -RA BKN012 OVC040
Forecast period: 0800 to 1200 UTC 27 April 2018
Forecast type: FROM: standard forecast or significant change
Winds: from the SW (230 degrees) at 17 MPH (15 knots; 7.8 m/s)
gusting to 29 MPH (25 knots; 13.0 m/s)
Visibility: 6 miles (10 km)
Ceiling: 2000 feet AGL
Clouds: overcast cloud deck at 2000 feet AGL
Weather: -RA BR  (light rain, mist)
Forecast for: CYQM (MONCTON AIRPORT , NB, CA)
Text: TAF CYQM 270538Z 2706/2806 20010KT P6SM -RA BKN012 OVC040
Forecast period: 0800 to 1200 UTC 27 April 2018
Forecast type: FROM: standard forecast or significant change
Winds: from the SW (230 degrees) at 17 MPH (15 knots; 7.8 m/s)
gusting to 29 MPH (25 knots; 13.0 m/s)
Visibility: 6 miles (10 km)
Ceiling: 2000 feet AGL
Clouds: overcast cloud deck at 2000 feet AGL
Weather: -RA BR  (light rain, mist)
Forecast for: CYQM (MONCTON AIRPORT , NB, CA)
Text: TAF CYQM 270538Z 2706/2806 20010KT P6SM -RA BKN012 OVC040
Forecast period: 0800 to 1200 UTC 27 April 2018
Forecast type: TEMPORARY: The following changes expected for less than half the time period
Visibility: 6 or more miles (10+ km)
Ceiling: 3000 feet AGL
Clouds: broken clouds at 3000 feet AGL
Weather: NSW  (no significant weather)
Forecast for: CYQM (MONCTON AIRPORT , NB, CA)
Text: TAF CYQM 270538Z 2706/2806 20010KT P6SM -RA BKN012 OVC040
Forecast period: 0800 to 1200 UTC 27 April 2018
Forecast type: TEMPORARY: The following changes expected for less than half the time period
Visibility: 6 or more miles (10+ km)
Ceiling: 3000 feet AGL
Clouds: broken clouds at 3000 feet AGL
Weather: NSW  (no significant weather)
Forecast for: CYQM (MONCTON AIRPORT , NB, CA)
Text: TAF CYQM 270538Z 2706/2806 20010KT P6SM -RA BKN012 OVC040
Forecast period: 1200 to 1700 UTC 27 April 2018
Forecast type: FROM: standard forecast or significant change
Winds: from the WSW (240 degrees) at 14 MPH (12 knots; 6.2 m/s)
gusting to 25 MPH (22 knots; 11.4 m/s)
Visibility: 6 or more miles (10+ km)
Ceiling: 2000 feet AGL
Clouds: broken clouds at 2000 feet AGL
Weather: no significant weather forecast for this period
Forecast for: CYQM (MONCTON AIRPORT , NB, CA)
Text: TAF CYQM 270538Z 2706/2806 20010KT P6SM -RA BKN012 OVC040
Forecast period: 1200 to 1700 UTC 27 April 2018
Forecast type: FROM: standard forecast or significant change
Winds: from the WSW (240 degrees) at 14 MPH (12 knots; 6.2 m/s)
gusting to 25 MPH (22 knots; 11.4 m/s)
Visibility: 6 or more miles (10+ km)
Ceiling: 2000 feet AGL
Clouds: broken clouds at 2000 feet AGL
Weather: no significant weather forecast for this period
Forecast for: CYQM (MONCTON AIRPORT , NB, CA)
Text: TAF CYQM 270538Z 2706/2806 20010KT P6SM -RA BKN012 OVC040
Forecast period: 1200 to 1700 UTC 27 April 2018
Forecast type: TEMPORARY: The following changes expected for less than half the time period
Ceiling: 3000 feet AGL
Clouds: broken clouds at 3000 feet AGL
Weather: no significant weather forecast for this period
Forecast for: CYQM (MONCTON AIRPORT , NB, CA)
Text: TAF CYQM 270538Z 2706/2806 20010KT P6SM -RA BKN012 OVC040
Forecast period: 1200 to 1700 UTC 27 April 2018
Forecast type: TEMPORARY: The following changes expected for less than half the time period
Ceiling: 3000 feet AGL
Clouds: broken clouds at 3000 feet AGL
Weather: no significant weather forecast for this period
Forecast for: CYQM (MONCTON AIRPORT , NB, CA)
Text: TAF CYQM 270538Z 2706/2806 20010KT P6SM -RA BKN012 OVC040
Forecast period: 1700 UTC 27 April 2018 to 0000 UTC 28 April 2018
Forecast type: FROM: standard forecast or significant change
Winds: from the SW (230 degrees) at 12 MPH (10 knots; 5.2 m/s)
Visibility: 6 or more miles (10+ km)
Ceiling: 3000 feet AGL
Clouds: broken clouds at 3000 feet AGL
Weather: no significant weather forecast for this period
Forecast for: CYQM (MONCTON AIRPORT , NB, CA)
Text: TAF CYQM 270538Z 2706/2806 20010KT P6SM -RA BKN012 OVC040
Forecast period: 1700 UTC 27 April 2018 to 0000 UTC 28 April 2018
Forecast type: FROM: standard forecast or significant change
Winds: from the SW (230 degrees) at 12 MPH (10 knots; 5.2 m/s)
Visibility: 6 or more miles (10+ km)
Ceiling: 3000 feet AGL
Clouds: broken clouds at 3000 feet AGL
Weather: no significant weather forecast for this period
Forecast for: CYQM (MONCTON AIRPORT , NB, CA)
Text: TAF CYQM 270538Z 2706/2806 20010KT P6SM -RA BKN012 OVC040
Forecast period: 0000 to 0200 UTC 28 April 2018
Forecast type: BECOMING: Conditions expected to become as follows by 0200 UTC 28 April 2018
Winds: from the SSE (160 degrees) at 7 MPH (6 knots; 3.1 m/s)
Visibility: 6 or more miles (10+ km)
Ceiling: 3000 feet AGL
Clouds: broken clouds at 3000 feet AGL
Weather: no significant weather forecast for this period
Forecast for: CYQM (MONCTON AIRPORT , NB, CA)
Text: TAF CYQM 270538Z 2706/2806 20010KT P6SM -RA BKN012 OVC040
Forecast period: 0000 to 0200 UTC 28 April 2018
Forecast type: BECOMING: Conditions expected to become as follows by 0200 UTC 28 April 2018
Winds: from the SSE (160 degrees) at 7 MPH (6 knots; 3.1 m/s)
Visibility: 6 or more miles (10+ km)
Ceiling: 3000 feet AGL
Clouds: broken clouds at 3000 feet AGL
Weather: no significant weather forecast for this period
Forecast for: CYQM (MONCTON AIRPORT , NB, CA)
Text: TAF CYQM 270538Z 2706/2806 20010KT P6SM -RA BKN012 OVC040
Forecast period: 0200 to 0600 UTC 28 April 2018
Forecast type: FROM: standard forecast or significant change
Winds: from the SSE (160 degrees) at 7 MPH (6 knots; 3.1 m/s)
Visibility: 6 or more miles (10+ km)
Ceiling: 10000 feet AGL
Clouds: scattered clouds at 3000 feet AGL
broken clouds at 10000 feet AGL
Weather: no significant weather forecast for this period
Forecast for: CYQM (MONCTON AIRPORT , NB, CA)
Text: TAF CYQM 270538Z 2706/2806 20010KT P6SM -RA BKN012 OVC040
Forecast period: 0200 to 0600 UTC 28 April 2018
Forecast type: FROM: standard forecast or significant change
Winds: from the SSE (160 degrees) at 7 MPH (6 knots; 3.1 m/s)
Visibility: 6 or more miles (10+ km)
Ceiling: 10000 feet AGL
Clouds: scattered clouds at 3000 feet AGL
broken clouds at 10000 feet AGL
Weather: no significant weather forecast for this period

 AIRPORT MAP

 RUNWAY INFORMATION
Runway 06 Runway length 10001 ft Runway width 200 ft
Runway elevation 223 ft Runway displaced threshold 0 ft Runway heading 44
Runway 24 Runway length 10001 ft Runway width 200 ft
Runway elevation 199 ft Runway displaced threshold 0 ft Runway heading 224
Runway 11 Runway length 8000 ft Runway width 200 ft
Runway elevation 222 ft Runway displaced threshold 0 ft Runway heading 89
Runway 29 Runway length 8000 ft Runway width 200 ft
Runway elevation 219 ft Runway displaced threshold 0 ft Runway heading 269

 AIRPORT FREQUENCIES
Type A/D Name APP/DEP Frequency 124.4 MHZ
Type ATIS Name ATIS Frequency 128.65 MHZ
Type GND Name GND Frequency 121.8 MHZ
Type INFO Name APN ADVSY Frequency 122.075 MHZ
Type RCO Name HALIFAX RD Frequency 122.5 MHZ
Type TWR Name TWR Frequency 120.8 MHZ

 AIRPORT NEAR NAVIGATION AIDS
Type NDB Name Moncton Frequency 224 KHZ
Type VORTAC Name Moncton Frequency 117300 KHZ
Type NDB Name Lewisville Frequency 366 KHZ
Type NDB Name Riverview Frequency 304 KHZ



Powered by Virtual Airlines Manager [v2.6.2]